^^
Station Historical Data
Daily Summary for March 10, 2021 Units:  English    Metric   Both
Daily Weekly Monthly Yearly
  High: Low: Average:
Temperature: 46.9 °F 36.7 °F 41.5 °F
Dew Point: 41.3 °F 32 °F 35.8 °F
Humidity: 84% 72% 80%
Wind Speed: 6mph 2mph 3.7mph
Wind Gust: 9mph - -
Wind- - South
Pressure: 30.18 in 29.84 in -
Precipitation: 0.00 in    
 
 
Tabular Data for March 10, 2021
Time Temperature Dew Point Pressure Wind Wind Speed Wind Gust Humidity Rainfall Rate (Hourly) solar
00:00 38.2 °F 33.8 °F 30.18 in NW 4 mph 4 mph 84% 0.00 in 0 W/m2
00:05 38 °F 33.6 °F 30.17 in NE 4 mph 4 mph 84% 0.00 in 0 W/m2
00:10 38.1 °F 33.4 °F 30.17 in WSW 4 mph 5 mph 83% 0.00 in 0 W/m2
00:15 38.1 °F 33.4 °F 30.17 in WNW 4 mph 6 mph 83% 0.00 in 0 W/m2
00:20 38 °F 33.3 °F 30.17 in West 4 mph 6 mph 83% 0.00 in 0 W/m2
00:25 38.1 °F 33.4 °F 30.17 in ENE 4 mph 6 mph 83% 0.00 in 0 W/m2
00:30 37.9 °F 33.2 °F 30.17 in NE 4 mph 5 mph 83% 0.00 in 0 W/m2
00:35 38 °F 33.3 °F 30.17 in South 4 mph 6 mph 83% 0.00 in 0 W/m2
00:40 37.9 °F 33.2 °F 30.17 in ESE 5 mph 5 mph 83% 0.00 in 0 W/m2
00:45 38 °F 33.3 °F 30.17 in West 4 mph 5 mph 83% 0.00 in 0 W/m2
00:50 37.9 °F 33.2 °F 30.17 in NW 4 mph 4 mph 83% 0.00 in 0 W/m2
00:55 37.7 °F 33 °F 30.17 in West 3 mph 6 mph 83% 0.00 in 0 W/m2
01:00 37.7 °F 33.3 °F 30.16 in NNE 4 mph 4 mph 84% 0.00 in 0 W/m2
01:05 37.6 °F 33.2 °F 30.16 in NW 4 mph 4 mph 84% 0.00 in 0 W/m2
01:10 37.5 °F 33.1 °F 30.16 in NE 4 mph 4 mph 84% 0.00 in 0 W/m2
01:15 37.4 °F 33 °F 30.16 in WSW 4 mph 4 mph 84% 0.00 in 0 W/m2
01:20 37.5 °F 33.1 °F 30.16 in West 4 mph 4 mph 84% 0.00 in 0 W/m2
01:25 37.4 °F 33 °F 30.16 in North 4 mph 5 mph 84% 0.00 in 0 W/m2
01:30 37.4 °F 33 °F 30.16 in NNW 4 mph 4 mph 84% 0.00 in 0 W/m2
01:35 37.3 °F 32.9 °F 30.16 in North 4 mph 4 mph 84% 0.00 in 0 W/m2
01:40 37.3 °F 32.9 °F 30.16 in NW 4 mph 4 mph 84% 0.00 in 0 W/m2
01:45 37.4 °F 33 °F 30.16 in SSW 4 mph 6 mph 84% 0.00 in 0 W/m2
01:50 37.5 °F 33.1 °F 30.16 in NNW 4 mph 4 mph 84% 0.00 in 0 W/m2
01:55 37.3 °F 32.6 °F 30.16 in ENE 4 mph 4 mph 83% 0.00 in 0 W/m2
02:00 37.2 °F 32.8 °F 30.16 in ENE 3 mph 5 mph 84% 0.00 in 0 W/m2
02:05 37.1 °F 32.7 °F 30.16 in SW 3 mph 5 mph 84% 0.00 in 0 W/m2
02:10 37 °F 32.6 °F 30.16 in ESE 3 mph 3 mph 84% 0.00 in 0 W/m2
02:15 36.8 °F 32.4 °F 30.16 in ESE 3 mph 3 mph 84% 0.00 in 0 W/m2
02:20 36.7 °F 32.3 °F 30.15 in WNW 3 mph 3 mph 84% 0.00 in 0 W/m2
02:25 37.1 °F 32.7 °F 30.15 in East 3 mph 3 mph 84% 0.00 in 0 W/m2
02:30 37.2 °F 32.8 °F 30.15 in ENE 3 mph 5 mph 84% 0.00 in 0 W/m2
02:35 37.1 °F 32.7 °F 30.14 in SW 4 mph 5 mph 84% 0.00 in 0 W/m2
02:40 36.9 °F 32.5 °F 30.14 in SSW 4 mph 4 mph 84% 0.00 in 0 W/m2
02:45 36.9 °F 32.5 °F 30.14 in SSE 4 mph 4 mph 84% 0.00 in 0 W/m2
02:50 36.8 °F 32.4 °F 30.14 in South 3 mph 6 mph 84% 0.00 in 0 W/m2
02:55 37 °F 32.6 °F 30.14 in North 3 mph 6 mph 84% 0.00 in 0 W/m2
03:00 36.8 °F 32.4 °F 30.14 in ENE 3 mph 3 mph 84% 0.00 in 0 W/m2
03:05 36.7 °F 32.3 °F 30.13 in ESE 3 mph 3 mph 84% 0.00 in 0 W/m2
03:10 36.8 °F 32.4 °F 30.13 in ESE 3 mph 3 mph 84% 0.00 in 0 W/m2
03:15 36.8 °F 32.4 °F 30.13 in East 3 mph 3 mph 84% 0.00 in 0 W/m2
03:20 37 °F 32.6 °F 30.12 in ENE 3 mph 5 mph 84% 0.00 in 0 W/m2
03:25 37 °F 32.6 °F 30.12 in NNW 3 mph 5 mph 84% 0.00 in 0 W/m2
03:30 37 °F 32.3 °F 30.12 in NW 4 mph 8 mph 83% 0.00 in 0 W/m2
03:35 36.9 °F 32.5 °F 30.12 in WNW 4 mph 8 mph 84% 0.00 in 0 W/m2
03:40 37 °F 32.3 °F 30.11 in ESE 4 mph 4 mph 83% 0.00 in 0 W/m2
03:45 37 °F 32.3 °F 30.11 in WNW 4 mph 4 mph 83% 0.00 in 0 W/m2
03:50 37 °F 32.3 °F 30.11 in NNE 3 mph 3 mph 83% 0.00 in 0 W/m2
03:55 37.1 °F 32.4 °F 30.10 in ENE 4 mph 4 mph 83% 0.00 in 0 W/m2
04:00 37.1 °F 32.4 °F 30.10 in ENE 4 mph 5 mph 83% 0.00 in 0 W/m2
04:05 37.2 °F 32.5 °F 30.10 in NE 4 mph 5 mph 83% 0.00 in 0 W/m2
04:10 37.3 °F 32.3 °F 30.10 in NNW 4 mph 4 mph 82% 0.00 in 0 W/m2
04:15 37.3 °F 32.3 °F 30.10 in NW 4 mph 4 mph 82% 0.00 in 0 W/m2
04:20 37.3 °F 32.3 °F 30.10 in NNW 4 mph 4 mph 82% 0.00 in 0 W/m2
04:25 37.2 °F 32.2 °F 30.09 in ENE 4 mph 5 mph 82% 0.00 in 0 W/m2
04:30 37.2 °F 32.5 °F 30.09 in ENE 4 mph 4 mph 83% 0.00 in 0 W/m2
04:35 37 °F 32.3 °F 30.09 in NW 3 mph 4 mph 83% 0.00 in 0 W/m2
04:40 36.9 °F 32.2 °F 30.09 in NNW 4 mph 4 mph 83% 0.00 in 0 W/m2
04:45 36.8 °F 32.1 °F 30.10 in NW 4 mph 4 mph 83% 0.00 in 0 W/m2
04:50 36.7 °F 32 °F 30.10 in NNE 3 mph 3 mph 83% 0.00 in 0 W/m2
04:55 36.8 °F 32.1 °F 30.09 in NW 3 mph 3 mph 83% 0.00 in 0 W/m2
05:00 36.9 °F 32.2 °F 30.09 in North 3 mph 3 mph 83% 0.00 in 0 W/m2
05:05 37 °F 32.3 °F 30.09 in East 3 mph 3 mph 83% 0.00 in 0 W/m2
05:10 37.2 °F 32.5 °F 30.09 in SW 3 mph 3 mph 83% 0.00 in 0 W/m2
05:15 37.2 °F 32.5 °F 30.09 in North 3 mph 4 mph 83% 0.00 in 0 W/m2
05:20 37.4 °F 32.4 °F 30.09 in NNE 3 mph 4 mph 82% 0.00 in 0 W/m2
05:25 37.2 °F 32.2 °F 30.09 in NW 3 mph 5 mph 82% 0.00 in 0 W/m2
05:30 37.1 °F 32.1 °F 30.09 in NE 3 mph 5 mph 82% 0.00 in 0 W/m2
05:35 37.5 °F 32.5 °F 30.09 in North 3 mph 5 mph 82% 0.00 in 0 W/m2
05:40 37.5 °F 32.5 °F 30.08 in NW 3 mph 3 mph 82% 0.00 in 0 W/m2
05:45 37.5 °F 32.5 °F 30.08 in WNW 3 mph 3 mph 82% 0.00 in 0 W/m2
05:50 37.4 °F 32.4 °F 30.09 in East 3 mph 3 mph 82% 0.00 in 0 W/m2
05:55 37.5 °F 32.5 °F 30.08 in ESE 3 mph 3 mph 82% 0.00 in 0 W/m2
06:00 37.7 °F 32.7 °F 30.08 in WSW 3 mph 3 mph 82% 0.00 in 0 W/m2
06:05 37.8 °F 32.5 °F 30.08 in ENE 3 mph 4 mph 81% 0.00 in 0 W/m2
06:10 37.7 °F 32.4 °F 30.08 in North 3 mph 3 mph 81% 0.00 in 0 W/m2
06:15 37.8 °F 32.5 °F 30.08 in SSE 3 mph 3 mph 81% 0.00 in 0 W/m2
06:20 37.9 °F 32.6 °F 30.08 in WSW 3 mph 3 mph 81% 0.00 in 0 W/m2
06:25 38 °F 32.7 °F 30.08 in NNW 3 mph 4 mph 81% 0.00 in 0 W/m2
06:30 38.4 °F 32.8 °F 30.08 in SW 3 mph 3 mph 80% 0.00 in 0 W/m2
06:35 38.7 °F 33.1 °F 30.07 in NNW 4 mph 4 mph 80% 0.00 in 0 W/m2
06:40 38.7 °F 33.1 °F 30.07 in NE 3 mph 4 mph 80% 0.00 in 0 W/m2
06:45 38.7 °F 33.1 °F 30.07 in NW 3 mph 4 mph 80% 0.00 in 0 W/m2
06:50 38.7 °F 33.1 °F 30.06 in West 4 mph 9 mph 80% 0.00 in 0 W/m2
06:55 38.5 °F 32.9 °F 30.06 in NW 4 mph 9 mph 80% 0.00 in 0 W/m2
07:00 38.5 °F 32.9 °F 30.06 in NW 4 mph 4 mph 80% 0.00 in 7 W/m2
07:05 38.6 °F 33 °F 30.06 in East 4 mph 5 mph 80% 0.00 in 12 W/m2
07:10 38.8 °F 33.2 °F 30.06 in North 4 mph 5 mph 80% 0.00 in 16 W/m2
07:15 38.9 °F 32.9 °F 30.06 in North 4 mph 6 mph 79% 0.00 in 23 W/m2
07:20 38.9 °F 32.9 °F 30.06 in NE 4 mph 4 mph 79% 0.00 in 32 W/m2
07:25 39 °F 33 °F 30.05 in WSW 4 mph 5 mph 79% 0.00 in 42 W/m2
07:30 39.3 °F 33.3 °F 30.05 in NW 4 mph 4 mph 79% 0.00 in 53 W/m2
07:35 39.3 °F 33.3 °F 30.05 in NNW 5 mph 5 mph 79% 0.00 in 58 W/m2
07:40 39.4 °F 33.4 °F 30.05 in North 5 mph 5 mph 79% 0.00 in 70 W/m2
07:45 39.4 °F 33.4 °F 30.05 in NNE 4 mph 5 mph 79% 0.00 in 65 W/m2
07:50 39.4 °F 33.4 °F 30.05 in ENE 4 mph 4 mph 79% 0.00 in 63 W/m2
07:55 39.5 °F 33.5 °F 30.05 in West 4 mph 4 mph 79% 0.00 in 65 W/m2
08:00 39.7 °F 33.4 °F 30.05 in SSE 4 mph 4 mph 78% 0.00 in 65 W/m2
08:05 39.7 °F 33.4 °F 30.05 in NE 4 mph 5 mph 78% 0.00 in 67 W/m2
08:10 39.8 °F 33.5 °F 30.05 in NNE 4 mph 4 mph 78% 0.00 in 72 W/m2
08:15 39.8 °F 33.5 °F 30.05 in NE 4 mph 4 mph 78% 0.00 in 86 W/m2
08:20 40 °F 33.7 °F 30.05 in NW 4 mph 4 mph 78% 0.00 in 100 W/m2
08:25 39.9 °F 33.6 °F 30.05 in NW 4 mph 5 mph 78% 0.00 in 127 W/m2
08:30 40 °F 33.7 °F 30.05 in ENE 4 mph 4 mph 78% 0.00 in 155 W/m2
08:35 40.2 °F 33.9 °F 30.05 in WNW 3 mph 4 mph 78% 0.00 in 172 W/m2
08:40 40.1 °F 33.8 °F 30.05 in NW 3 mph 6 mph 78% 0.00 in 162 W/m2
08:45 40.1 °F 33.8 °F 30.05 in South 3 mph 6 mph 78% 0.00 in 149 W/m2
08:50 40.2 °F 33.9 °F 30.05 in North 3 mph 3 mph 78% 0.00 in 160 W/m2
08:55 40.4 °F 34.1 °F 30.04 in NW 4 mph 5 mph 78% 0.00 in 169 W/m2
09:00 40.2 °F 33.9 °F 30.04 in NNW 4 mph 4 mph 78% 0.00 in 171 W/m2
09:05 40.6 °F 34.3 °F 30.04 in NNW 4 mph 4 mph 78% 0.00 in 172 W/m2
09:10 40.8 °F 34.1 °F 30.04 in NW 4 mph 4 mph 77% 0.00 in 172 W/m2
09:15 41.1 °F 34.4 °F 30.04 in NW 4 mph 5 mph 77% 0.00 in 174 W/m2
09:20 40.8 °F 34.1 °F 30.03 in WNW 4 mph 4 mph 77% 0.00 in 174 W/m2
09:25 41.2 °F 34.9 °F 30.03 in NNW 4 mph 4 mph 78% 0.00 in 197 W/m2
09:30 41.1 °F 34.8 °F 30.03 in NW 3 mph 4 mph 78% 0.00 in 197 W/m2
09:35 40.9 °F 34.2 °F 30.03 in WNW 3 mph 4 mph 77% 0.00 in 218 W/m2
09:40 41.1 °F 34.4 °F 30.03 in ENE 3 mph 3 mph 77% 0.00 in 211 W/m2
09:45 41.7 °F 35 °F 30.02 in North 3 mph 4 mph 77% 0.00 in 195 W/m2
09:50 42.9 °F 35.2 °F 30.02 in North 4 mph 4 mph 74% 0.00 in 229 W/m2
09:55 42 °F 35 °F 30.02 in NNE 4 mph 5 mph 76% 0.00 in 206 W/m2
10:00 42.1 °F 34.7 °F 30.01 in NNW 4 mph 4 mph 75% 0.00 in 181 W/m2
10:05 42.1 °F 34.7 °F 30.02 in NNW 4 mph 4 mph 75% 0.00 in 172 W/m2
10:10 42.4 °F 34.7 °F 30.02 in NNW 3 mph 3 mph 74% 0.00 in 139 W/m2
10:15 42.6 °F 34.9 °F 30.02 in North 4 mph 4 mph 74% 0.00 in 97 W/m2
10:20 41.9 °F 34.6 °F 30.02 in NNE 4 mph 5 mph 75% 0.00 in 98 W/m2
10:25 41.3 °F 34.3 °F 30.02 in NNE 4 mph 5 mph 76% 0.00 in 72 W/m2
10:30 41.5 °F 34.5 °F 30.02 in West 4 mph 4 mph 76% 0.00 in 83 W/m2
10:35 41.6 °F 34.6 °F 30.02 in NNE 4 mph 5 mph 76% 0.00 in 88 W/m2
10:40 41.6 °F 34.6 °F 30.02 in NNW 4 mph 4 mph 76% 0.00 in 127 W/m2
10:45 41.9 °F 34.9 °F 30.01 in West 4 mph 4 mph 76% 0.00 in 179 W/m2
10:50 42.7 °F 35.3 °F 30.01 in North 4 mph 4 mph 75% 0.00 in 246 W/m2
10:55 44.2 °F 36.1 °F 30.01 in North 4 mph 4 mph 73% 0.00 in 274 W/m2
11:00 44.7 °F 36.2 °F 30.01 in NW 4 mph 5 mph 72% 0.00 in 283 W/m2
11:05 44.5 °F 36 °F 30.01 in North 4 mph 5 mph 72% 0.00 in 274 W/m2
11:10 43.9 °F 35.5 °F 30.01 in NNE 4 mph 4 mph 72% 0.00 in 236 W/m2
11:15 43.6 °F 35.5 °F 30.00 in North 4 mph 4 mph 73% 0.00 in 225 W/m2
11:20 44 °F 35.9 °F 30.00 in North 4 mph 6 mph 73% 0.00 in 225 W/m2
11:25 44.1 °F 36 °F 30.00 in North 4 mph 6 mph 73% 0.00 in 230 W/m2
11:30 44 °F 35.9 °F 30.00 in North 4 mph 4 mph 73% 0.00 in 248 W/m2
11:35 43.8 °F 35.7 °F 30.00 in North 4 mph 6 mph 73% 0.00 in 255 W/m2
11:40 43.5 °F 35.8 °F 30.00 in NE 4 mph 5 mph 74% 0.00 in 278 W/m2
11:45 43 °F 35.6 °F 30.00 in NE 4 mph 5 mph 75% 0.00 in 285 W/m2
11:50 42.4 °F 35.4 °F 30.00 in NE 3 mph 4 mph 76% 0.00 in 294 W/m2
11:55 41.9 °F 35.2 °F 29.99 in SSE 3 mph 4 mph 77% 0.00 in 290 W/m2
12:00 42.2 °F 35.5 °F 29.99 in NE 3 mph 3 mph 77% 0.00 in 279 W/m2
12:05 42.1 °F 35.4 °F 29.99 in North 3 mph 4 mph 77% 0.00 in 253 W/m2
12:10 41.8 °F 35.4 °F 29.98 in North 3 mph 4 mph 78% 0.00 in 234 W/m2
12:15 42.5 °F 35.8 °F 29.98 in SW 4 mph 4 mph 77% 0.00 in 241 W/m2
12:20 42.6 °F 35.9 °F 29.98 in NE 4 mph 4 mph 77% 0.00 in 243 W/m2
12:25 43 °F 36 °F 29.98 in NW 4 mph 4 mph 76% 0.00 in 250 W/m2
12:30 42.6 °F 35.9 °F 29.97 in North 3 mph 5 mph 77% 0.00 in 272 W/m2
12:35 43.1 °F 36 °F 29.97 in ENE 4 mph 5 mph 76% 0.00 in 285 W/m2
12:40 43 °F 36 °F 29.97 in NE 4 mph 4 mph 76% 0.00 in 257 W/m2
12:45 42.8 °F 36.1 °F 29.97 in NNE 3 mph 4 mph 77% 0.00 in 274 W/m2
12:50 42.6 °F 35.9 °F 29.96 in SSE 3 mph 4 mph 77% 0.00 in 281 W/m2
12:55 42.3 °F 35.6 °F 29.96 in ESE 3 mph 4 mph 77% 0.00 in 239 W/m2
13:00 41.8 °F 35.4 °F 29.96 in WNW 3 mph 3 mph 78% 0.00 in 213 W/m2
13:05 41.5 °F 35.5 °F 29.95 in NE 3 mph 3 mph 79% 0.00 in 202 W/m2
13:10 41.4 °F 35.4 °F 29.94 in NW 3 mph 3 mph 79% 0.00 in 155 W/m2
13:15 41.5 °F 35.5 °F 29.94 in ENE 3 mph 3 mph 79% 0.00 in 232 W/m2
13:20 42.4 °F 36.3 °F 29.94 in ENE 3 mph 3 mph 79% 0.00 in 246 W/m2
13:25 42.4 °F 36 °F 29.94 in North 2 mph 3 mph 78% 0.00 in 197 W/m2
13:30 42.2 °F 36.2 °F 29.93 in South 2 mph 4 mph 79% 0.00 in 181 W/m2
13:35 42.4 °F 36.3 °F 29.93 in SW 2 mph 4 mph 79% 0.00 in 213 W/m2
13:40 42.9 °F 36.8 °F 29.93 in SSW 3 mph 4 mph 79% 0.00 in 290 W/m2
13:45 43.9 °F 37.8 °F 29.92 in SSE 3 mph 4 mph 79% 0.00 in 380 W/m2
13:50 44.6 °F 38.2 °F 29.92 in South 3 mph 4 mph 78% 0.00 in 591 W/m2
13:55 44.4 °F 37.6 °F 29.92 in SSW 3 mph 5 mph 77% 0.00 in 385 W/m2
14:00 44.3 °F 37.9 °F 29.92 in South 3 mph 3 mph 78% 0.00 in 526 W/m2
14:05 43.2 °F 36.5 °F 29.92 in East 3 mph 3 mph 77% 0.00 in 359 W/m2
14:10 42.8 °F 36.4 °F 29.91 in SE 2 mph 3 mph 78% 0.00 in 613 W/m2
14:15 43.5 °F 37.1 °F 29.91 in SSE 3 mph 4 mph 78% 0.00 in 445 W/m2
14:20 44.2 °F 37.4 °F 29.91 in ESE 4 mph 4 mph 77% 0.00 in 441 W/m2
14:25 44.5 °F 37.7 °F 29.91 in ESE 4 mph 4 mph 77% 0.00 in 427 W/m2
14:30 46.4 °F 38.9 °F 29.90 in West 4 mph 4 mph 75% 0.00 in 545 W/m2
14:35 45.7 °F 38.6 °F 29.90 in SSW 3 mph 4 mph 76% 0.00 in 366 W/m2
14:40 45.8 °F 38.7 °F 29.90 in SSW 3 mph 4 mph 76% 0.00 in 315 W/m2
14:45 46.2 °F 39.1 °F 29.90 in ESE 4 mph 4 mph 76% 0.00 in 434 W/m2
14:50 46.4 °F 38.9 °F 29.90 in ENE 4 mph 4 mph 75% 0.00 in 373 W/m2
14:55 45.2 °F 38.1 °F 29.90 in South 4 mph 4 mph 76% 0.00 in 311 W/m2
15:00 44.7 °F 37.9 °F 29.90 in SW 3 mph 3 mph 77% 0.00 in 323 W/m2
15:05 45.3 °F 38.2 °F 29.90 in WSW 3 mph 3 mph 76% 0.00 in 316 W/m2
15:10 45 °F 38.2 °F 29.90 in ENE 3 mph 3 mph 77% 0.00 in 230 W/m2
15:15 45.2 °F 38.1 °F 29.90 in East 3 mph 4 mph 76% 0.00 in 232 W/m2
15:20 44.2 °F 37.4 °F 29.90 in SSW 4 mph 4 mph 77% 0.00 in 255 W/m2
15:25 44.9 °F 38.5 °F 29.89 in South 4 mph 4 mph 78% 0.00 in 258 W/m2
15:30 45.1 °F 38.3 °F 29.89 in SSW 3 mph 3 mph 77% 0.00 in 237 W/m2
15:35 44.5 °F 37.7 °F 29.89 in ESE 3 mph 3 mph 77% 0.00 in 267 W/m2
15:40 44.6 °F 38.2 °F 29.89 in East 3 mph 3 mph 78% 0.00 in 229 W/m2
15:45 45.7 °F 39.2 °F 29.89 in NNW 3 mph 4 mph 78% 0.00 in 151 W/m2
15:50 45.7 °F 38.9 °F 29.88 in South 3 mph 3 mph 77% 0.00 in 127 W/m2
15:55 45.1 °F 38 °F 29.89 in South 3 mph 3 mph 76% 0.00 in 118 W/m2
16:00 43.4 °F 37 °F 29.89 in SSW 3 mph 4 mph 78% 0.00 in 102 W/m2
16:05 42.8 °F 36.7 °F 29.88 in South 3 mph 4 mph 79% 0.00 in 141 W/m2
16:10 42.2 °F 36.5 °F 29.88 in SSW 2 mph 2 mph 80% 0.00 in 116 W/m2
16:15 42.7 °F 37.3 °F 29.88 in South 2 mph 3 mph 81% 0.00 in 109 W/m2
16:20 44.3 °F 38.5 °F 29.88 in South 3 mph 3 mph 80% 0.00 in 95 W/m2
16:25 44.8 °F 38.4 °F 29.88 in SSE 3 mph 3 mph 78% 0.00 in 81 W/m2
16:30 44.1 °F 38 °F 29.87 in South 2 mph 2 mph 79% 0.00 in 56 W/m2
16:35 43.7 °F 37.9 °F 29.87 in South 2 mph 2 mph 80% 0.00 in 40 W/m2
16:40 43.6 °F 38.2 °F 29.87 in SSW 2 mph 3 mph 81% 0.00 in 37 W/m2
16:45 43.2 °F 37.4 °F 29.87 in SSW 2 mph 3 mph 80% 0.00 in 72 W/m2
16:50 42.6 °F 37.2 °F 29.87 in South 2 mph 2 mph 81% 0.00 in 65 W/m2
16:55 42.3 °F 37.2 °F 29.87 in SW 2 mph 3 mph 82% 0.00 in 49 W/m2
17:00 42.6 °F 37.8 °F 29.87 in SSE 2 mph 4 mph 83% 0.00 in 40 W/m2
17:05 42.9 °F 37.8 °F 29.87 in SSW 3 mph 6 mph 82% 0.00 in 32 W/m2
17:10 42.4 °F 37 °F 29.87 in South 3 mph 4 mph 81% 0.00 in 39 W/m2
17:15 41.7 °F 36.6 °F 29.87 in ENE 3 mph 4 mph 82% 0.00 in 40 W/m2
17:20 41.3 °F 36.5 °F 29.87 in SSW 2 mph 2 mph 83% 0.00 in 44 W/m2
17:25 42.2 °F 37.4 °F 29.87 in NNW 2 mph 3 mph 83% 0.00 in 42 W/m2
17:30 42.9 °F 38.1 °F 29.87 in SW 3 mph 3 mph 83% 0.00 in 39 W/m2
17:35 43.1 °F 38 °F 29.87 in SSW 3 mph 4 mph 82% 0.00 in 39 W/m2
17:40 43.6 °F 38.5 °F 29.87 in ESE 4 mph 4 mph 82% 0.00 in 53 W/m2
17:45 43.5 °F 38.1 °F 29.87 in WSW 4 mph 4 mph 81% 0.00 in 72 W/m2
17:50 42 °F 36.9 °F 29.87 in North 3 mph 3 mph 82% 0.00 in 74 W/m2
17:55 41.4 °F 36.6 °F 29.86 in NW 2 mph 3 mph 83% 0.00 in 91 W/m2
18:00 42 °F 37.5 °F 29.86 in SSW 3 mph 3 mph 84% 0.00 in 84 W/m2
18:05 42.1 °F 37.3 °F 29.87 in SSE 3 mph 4 mph 83% 0.00 in 60 W/m2
18:10 41.9 °F 37.1 °F 29.87 in SSW 3 mph 3 mph 83% 0.00 in 33 W/m2
18:15 42.8 °F 38 °F 29.87 in South 3 mph 3 mph 83% 0.00 in 23 W/m2
18:20 41.9 °F 37.1 °F 29.86 in SSW 3 mph 3 mph 83% 0.00 in 19 W/m2
18:25 43.5 °F 39 °F 29.86 in SE 3 mph 3 mph 84% 0.00 in 18 W/m2
18:30 44.5 °F 39 °F 29.87 in SW 4 mph 4 mph 81% 0.00 in 12 W/m2
18:35 45.1 °F 39.6 °F 29.86 in SE 4 mph 4 mph 81% 0.00 in 7 W/m2
18:40 44.4 °F 38.3 °F 29.86 in NW 4 mph 4 mph 79% 0.00 in 0 W/m2
18:45 43.8 °F 38.3 °F 29.86 in South 4 mph 7 mph 81% 0.00 in 0 W/m2
18:50 43.6 °F 37.8 °F 29.86 in North 4 mph 4 mph 80% 0.00 in 0 W/m2
18:55 42.6 °F 37.2 °F 29.87 in SSE 4 mph 4 mph 81% 0.00 in 0 W/m2
19:00 42.7 °F 37.6 °F 29.87 in SSE 4 mph 7 mph 82% 0.00 in 0 W/m2
19:05 42.9 °F 37.8 °F 29.87 in South 5 mph 7 mph 82% 0.00 in 0 W/m2
19:10 42.8 °F 37.7 °F 29.87 in SSW 5 mph 5 mph 82% 0.00 in 0 W/m2
19:15 43 °F 37.6 °F 29.87 in ENE 4 mph 5 mph 81% 0.00 in 0 W/m2
19:20 42.6 °F 37.2 °F 29.87 in ESE 3 mph 3 mph 81% 0.00 in 0 W/m2
19:25 42.2 °F 37.1 °F 29.87 in ESE 3 mph 3 mph 82% 0.00 in 0 W/m2
19:30 41.8 °F 36.7 °F 29.87 in SSW 3 mph 3 mph 82% 0.00 in 0 W/m2
19:35 41.9 °F 37.1 °F 29.87 in NNE 2 mph 3 mph 83% 0.00 in 0 W/m2
19:40 42 °F 37.2 °F 29.86 in SW 2 mph 2 mph 83% 0.00 in 0 W/m2
19:45 43.2 °F 38.7 °F 29.86 in NNE 3 mph 3 mph 84% 0.00 in 0 W/m2
19:50 44.3 °F 38.8 °F 29.86 in NNE 4 mph 5 mph 81% 0.00 in 0 W/m2
19:55 45.4 °F 39.9 °F 29.85 in NNE 5 mph 5 mph 81% 0.00 in 0 W/m2
20:00 45.2 °F 39.4 °F 29.85 in NE 5 mph 6 mph 80% 0.00 in 0 W/m2
20:05 45.5 °F 40 °F 29.85 in North 5 mph 6 mph 81% 0.00 in 0 W/m2
20:10 45.9 °F 40.1 °F 29.86 in ENE 5 mph 5 mph 80% 0.00 in 0 W/m2
20:15 45.6 °F 39.5 °F 29.86 in North 5 mph 5 mph 79% 0.00 in 0 W/m2
20:20 45.2 °F 39.7 °F 29.86 in NNE 5 mph 5 mph 81% 0.00 in 0 W/m2
20:25 45.5 °F 39.7 °F 29.85 in NNE 5 mph 6 mph 80% 0.00 in 0 W/m2
20:30 45.4 °F 39.6 °F 29.85 in NNW 5 mph 5 mph 80% 0.00 in 0 W/m2
20:35 45.6 °F 40.1 °F 29.85 in NNE 5 mph 5 mph 81% 0.00 in 0 W/m2
20:40 46 °F 40.2 °F 29.85 in NNE 5 mph 8 mph 80% 0.00 in 0 W/m2
20:45 46 °F 40.2 °F 29.85 in North 5 mph 9 mph 80% 0.00 in 0 W/m2
20:50 46.4 °F 40.6 °F 29.85 in NNE 6 mph 8 mph 80% 0.00 in 0 W/m2
20:55 46.1 °F 40.3 °F 29.85 in NNE 6 mph 8 mph 80% 0.00 in 0 W/m2
21:00 46.8 °F 41.3 °F 29.85 in NNE 6 mph 6 mph 81% 0.00 in 0 W/m2
21:05 46.9 °F 41.1 °F 29.85 in NW 6 mph 9 mph 80% 0.00 in 0 W/m2
21:10 46.7 °F 40.5 °F 29.85 in North 6 mph 6 mph 79% 0.00 in 0 W/m2
21:15 46.5 °F 40.7 °F 29.85 in North 6 mph 6 mph 80% 0.00 in 0 W/m2
21:20 46.2 °F 40.4 °F 29.85 in NNE 6 mph 6 mph 80% 0.00 in 0 W/m2
21:25 46.2 °F 40.4 °F 29.85 in NE 6 mph 6 mph 80% 0.00 in 0 W/m2
21:30 46.3 °F 40.5 °F 29.85 in NNE 6 mph 6 mph 80% 0.00 in 0 W/m2
21:35 46.1 °F 40.3 °F 29.85 in NNE 5 mph 6 mph 80% 0.00 in 0 W/m2
21:40 45.8 °F 40.3 °F 29.85 in NNW 5 mph 6 mph 81% 0.00 in 0 W/m2
21:45 45.2 °F 39.4 °F 29.85 in NNE 5 mph 6 mph 80% 0.00 in 0 W/m2
21:50 45 °F 39.8 °F 29.84 in NNW 5 mph 5 mph 82% 0.00 in 0 W/m2
21:55 45.3 °F 39.8 °F 29.85 in ENE 5 mph 5 mph 81% 0.00 in 0 W/m2
22:00 45.3 °F 39.8 °F 29.85 in NNE 5 mph 8 mph 81% 0.00 in 0 W/m2
22:05 44.9 °F 39.4 °F 29.85 in NNE 5 mph 8 mph 81% 0.00 in 0 W/m2
22:10 44.8 °F 39.3 °F 29.85 in North 5 mph 5 mph 81% 0.00 in 0 W/m2
22:15 45.1 °F 39.6 °F 29.85 in NNE 5 mph 5 mph 81% 0.00 in 0 W/m2
22:20 44.4 °F 38.9 °F 29.85 in NNE 5 mph 5 mph 81% 0.00 in 0 W/m2
22:25 44.3 °F 39.2 °F 29.85 in North 5 mph 5 mph 82% 0.00 in 0 W/m2
22:30 44.5 °F 39.3 °F 29.84 in WSW 4 mph 4 mph 82% 0.00 in 0 W/m2
22:35 44.7 °F 39.5 °F 29.84 in NNW 4 mph 4 mph 82% 0.00 in 0 W/m2
22:40 44.5 °F 39.3 °F 29.84 in North 5 mph 5 mph 82% 0.00 in 0 W/m2
22:45 44.5 °F 39.3 °F 29.84 in NNW 5 mph 5 mph 82% 0.00 in 0 W/m2
22:50 44.1 °F 39 °F 29.84 in NE 5 mph 5 mph 82% 0.00 in 0 W/m2
22:55 43.8 °F 38.7 °F 29.84 in SSW 4 mph 5 mph 82% 0.00 in 0 W/m2
23:00 43.8 °F 39 °F 29.84 in WSW 4 mph 4 mph 83% 0.00 in 0 W/m2
23:05 44.1 °F 39.3 °F 29.84 in NE 4 mph 6 mph 83% 0.00 in 0 W/m2
23:10 44 °F 38.9 °F 29.84 in East 5 mph 5 mph 82% 0.00 in 0 W/m2
23:15 43.7 °F 38.9 °F 29.84 in NE 4 mph 5 mph 83% 0.00 in 0 W/m2
23:20 43.3 °F 38.5 °F 29.84 in South 4 mph 6 mph 83% 0.00 in 0 W/m2
23:25 43.4 °F 38.9 °F 29.84 in ESE 4 mph 6 mph 84% 0.00 in 0 W/m2
23:30 43.5 °F 39 °F 29.84 in SE 4 mph 5 mph 84% 0.00 in 0 W/m2
23:35 43.6 °F 39.1 °F 29.84 in ESE 4 mph 5 mph 84% 0.00 in 0 W/m2
23:40 43.6 °F 39.1 °F 29.84 in South 4 mph 5 mph 84% 0.00 in 0 W/m2
23:45 43.7 °F 39.2 °F 29.84 in ESE 5 mph 5 mph 84% 0.00 in 0 W/m2
23:50 43.6 °F 39.1 °F 29.84 in South 5 mph 5 mph 84% 0.00 in 0 W/m2
23:55 43.2 °F 38.7 °F 29.84 in SE 5 mph 5 mph 84% 0.00 in 0 W/m2
Sand Point, Michigan, USA
Compliments of Weather Underground - 2 mb